Time;durP1;ratioP1;P1;durP2;ratioP2;P2;SDS_P1;SDS_P2;PMS_P1;PMS_P2;Temp;Humidity;BMP_temperature;BMP_pressure;BME280_temperature;BME280_humidity;BME280_pressure;Samples;Min_cycle;Max_cycle;Signal;HPM_P1;HPM_P2
2024/03/25 00:02:13;;;;;;;10.57;1.92;;;6.40;99.90;;;;;;5086803;28;20567;-67
2024/03/25 00:04:39;;;;;;;13.00;1.92;;;6.50;99.90;;;;;;5087478;28;20142;-67
2024/03/25 00:07:04;;;;;;;7.55;2.03;;;6.50;99.90;;;;;;5062421;28;20070;-67
2024/03/25 00:09:30;;;;;;;7.93;1.85;;;6.50;99.90;;;;;;5083033;28;20027;-67
2024/03/25 00:11:56;;;;;;;6.15;1.70;;;6.50;99.90;;;;;;5085781;28;20076;-67
2024/03/25 00:14:22;;;;;;;9.32;2.20;;;6.50;99.90;;;;;;5063056;28;20032;-67
2024/03/25 00:16:47;;;;;;;11.10;1.90;;;6.50;99.90;;;;;;5084854;28;20718;-67
2024/03/25 00:19:13;;;;;;;7.68;1.83;;;6.50;99.90;;;;;;5085494;28;20762;-67
2024/03/25 00:21:39;;;;;;;6.05;1.60;;;6.50;99.90;;;;;;5084066;28;20036;-67
2024/03/25 00:24:05;;;;;;;7.68;2.20;;;6.50;99.90;;;;;;5081000;28;20032;-67
2024/03/25 00:26:30;;;;;;;6.70;1.90;;;6.50;99.90;;;;;;5083797;28;20028;-67
2024/03/25 00:28:56;;;;;;;4.90;2.05;;;6.40;99.90;;;;;;5080555;28;20036;-67
2024/03/25 00:31:22;;;;;;;11.20;2.83;;;6.40;99.90;;;;;;5080769;28;20069;-67
2024/03/25 00:33:47;;;;;;;6.70;2.10;;;6.40;99.90;;;;;;5081250;28;20032;-67
2024/03/25 00:36:13;;;;;;;7.25;1.35;;;6.40;99.90;;;;;;5085987;28;20362;-67
2024/03/25 00:38:39;;;;;;;15.45;2.33;;;6.40;99.90;;;;;;5087161;28;20036;-67
2024/03/25 00:41:04;;;;;;;10.00;1.90;;;6.40;99.90;;;;;;5085706;28;20032;-67
2024/03/25 00:43:30;;;;;;;5.35;1.45;;;6.50;99.90;;;;;;5079886;28;20642;-67
2024/03/25 00:45:56;;;;;;;6.88;1.98;;;6.50;99.90;;;;;;5074038;28;20025;-67
2024/03/25 00:48:22;;;;;;;7.90;1.80;;;6.50;99.90;;;;;;5087337;28;20029;-67
2024/03/25 00:50:48;;;;;;;8.93;2.10;;;6.50;99.90;;;;;;5075679;28;20048;-67
2024/03/25 00:53:14;;;;;;;6.22;1.55;;;6.50;99.90;;;;;;5069019;28;20127;-67
2024/03/25 00:55:40;;;;;;;10.70;1.58;;;6.50;99.90;;;;;;5079634;28;20177;-67
2024/03/25 00:58:06;;;;;;;7.72;1.92;;;6.60;99.90;;;;;;5065211;28;20036;-67
2024/03/25 01:00:31;;;;;;;11.60;2.05;;;6.60;99.90;;;;;;5087014;28;20492;-67
2024/03/25 01:02:57;;;;;;;9.30;1.98;;;6.60;99.90;;;;;;5087333;28;20489;-67
2024/03/25 01:05:23;;;;;;;11.95;2.13;;;6.60;99.90;;;;;;5081381;28;20039;-67
2024/03/25 01:07:48;;;;;;;7.72;2.13;;;6.60;99.90;;;;;;5087008;28;20031;-67
2024/03/25 01:10:15;;;;;;;10.20;1.83;;;6.60;99.90;;;;;;5072177;28;20512;-67
2024/03/25 01:12:41;;;;;;;10.25;2.28;;;6.60;99.90;;;;;;5086931;28;20582;-67
2024/03/25 01:15:09;;;;;;;12.10;2.75;;;6.60;99.90;;;;;;5069733;28;20105;-67
2024/03/25 01:17:35;;;;;;;8.48;2.58;;;6.60;99.90;;;;;;5065199;28;20024;-67
2024/03/25 01:20:01;;;;;;;9.50;2.67;;;6.60;99.90;;;;;;5075260;28;20028;-67
2024/03/25 01:22:27;;;;;;;9.35;2.60;;;6.60;99.90;;;;;;5087563;28;20023;-67
2024/03/25 01:24:52;;;;;;;12.88;2.85;;;6.70;99.90;;;;;;5084979;28;20032;-67
2024/03/25 01:27:18;;;;;;;5.38;1.65;;;6.60;99.90;;;;;;5086305;28;20044;-67
2024/03/25 01:29:43;;;;;;;14.18;2.60;;;6.50;99.90;;;;;;5087164;28;20058;-67
2024/03/25 01:32:09;;;;;;;9.85;2.30;;;6.60;99.90;;;;;;5071923;28;20035;-67
2024/03/25 01:34:34;;;;;;;12.38;2.70;;;6.60;99.90;;;;;;5082570;28;20541;-67
2024/03/25 01:37:00;;;;;;;8.13;2.42;;;6.50;99.90;;;;;;5090387;28;20101;-67
2024/03/25 01:39:25;;;;;;;5.95;2.47;;;6.50;99.90;;;;;;5082894;28;20029;-67
2024/03/25 01:41:51;;;;;;;14.05;2.33;;;6.50;99.90;;;;;;5084556;28;20044;-67
2024/03/25 01:44:17;;;;;;;18.52;3.20;;;6.60;99.90;;;;;;5090014;28;20503;-67
2024/03/25 01:46:43;;;;;;;11.55;2.50;;;6.50;99.90;;;;;;5084219;28;20078;-68
2024/03/25 01:49:09;;;;;;;14.35;3.00;;;6.50;99.90;;;;;;5089860;28;20093;-67
2024/03/25 01:51:36;;;;;;;6.68;2.03;;;6.50;99.90;;;;;;5089957;28;20024;-67
2024/03/25 01:54:04;;;;;;;17.55;2.67;;;6.50;99.90;;;;;;5082422;28;20615;-67
2024/03/25 01:56:33;;;;;;;8.20;2.22;;;6.50;99.90;;;;;;5064442;28;20536;-67
2024/03/25 01:58:59;;;;;;;6.35;1.77;;;6.50;99.90;;;;;;5083497;28;20728;-67
2024/03/25 02:01:25;;;;;;;6.93;2.42;;;6.50;99.90;;;;;;5086660;28;20070;-67
2024/03/25 02:03:52;;;;;;;12.68;2.38;;;6.50;99.90;;;;;;5082135;28;20588;-67
2024/03/25 02:06:18;;;;;;;10.85;2.50;;;6.50;99.90;;;;;;5089642;28;20040;-67
2024/03/25 02:08:44;;;;;;;11.00;2.22;;;6.50;99.90;;;;;;5075018;28;20032;-67
2024/03/25 02:11:12;;;;;;;9.73;2.30;;;6.50;99.90;;;;;;5089803;28;20032;-67
2024/03/25 02:13:38;;;;;;;8.50;2.35;;;6.50;99.90;;;;;;5089978;28;20020;-67
2024/03/25 02:16:04;;;;;;;7.95;2.65;;;6.50;99.90;;;;;;5089931;28;20020;-67
2024/03/25 02:18:33;;;;;;;10.57;2.58;;;6.50;99.90;;;;;;5078612;28;20031;-67
2024/03/25 02:20:59;;;;;;;8.40;2.08;;;6.50;99.90;;;;;;5086948;28;20036;-67
2024/03/25 02:23:26;;;;;;;15.40;3.10;;;6.50;99.90;;;;;;5084718;28;20064;-67
2024/03/25 02:25:52;;;;;;;9.98;2.05;;;6.50;99.90;;;;;;5075564;28;20025;-67
2024/03/25 02:28:18;;;;;;;10.23;2.88;;;6.50;99.90;;;;;;5078236;28;20544;-67
2024/03/25 02:30:43;;;;;;;9.18;2.40;;;6.50;99.90;;;;;;5089332;28;20108;-67
2024/03/25 02:33:09;;;;;;;10.05;1.92;;;6.50;99.90;;;;;;5088295;28;20485;-67
2024/03/25 02:35:35;;;;;;;8.77;2.15;;;6.40;99.90;;;;;;5065615;28;20028;-67
2024/03/25 02:38:03;;;;;;;10.98;2.58;;;6.50;99.90;;;;;;5073827;28;20082;-67
2024/03/25 02:40:29;;;;;;;9.25;2.67;;;6.40;99.90;;;;;;5073268;28;20031;-67
2024/03/25 02:42:54;;;;;;;7.50;2.17;;;6.50;99.90;;;;;;5083511;28;20020;-67
2024/03/25 02:45:20;;;;;;;6.22;1.85;;;6.40;99.90;;;;;;5085353;28;20388;-67
2024/03/25 02:47:46;;;;;;;7.70;2.55;;;6.40;99.90;;;;;;5080387;28;20035;-67
2024/03/25 02:50:12;;;;;;;12.63;2.53;;;6.40;99.90;;;;;;5075081;28;20511;-67
2024/03/25 02:52:37;;;;;;;7.93;2.35;;;6.30;99.90;;;;;;5088841;28;20028;-67
2024/03/25 02:55:03;;;;;;;6.88;1.95;;;6.30;99.90;;;;;;5088744;28;20068;-67
2024/03/25 02:57:28;;;;;;;15.05;2.42;;;6.40;99.90;;;;;;5089368;28;20039;-67
2024/03/25 02:59:54;;;;;;;10.52;1.90;;;6.40;99.90;;;;;;5068879;28;20493;-67
2024/03/25 03:02:20;;;;;;;14.80;2.22;;;6.40;99.90;;;;;;5087282;28;20052;-67
2024/03/25 03:04:45;;;;;;;6.40;2.53;;;6.40;99.90;;;;;;5080158;28;20457;-67
2024/03/25 03:07:11;;;;;;;8.57;2.10;;;6.30;99.90;;;;;;5081650;28;20046;-67
2024/03/25 03:09:37;;;;;;;11.18;2.15;;;6.30;99.90;;;;;;5088947;28;20481;-67
2024/03/25 03:12:03;;;;;;;8.52;1.90;;;6.30;99.90;;;;;;5086917;28;20429;-67
2024/03/25 03:14:29;;;;;;;13.20;1.95;;;6.30;99.90;;;;;;5084007;28;20028;-67
2024/03/25 03:16:57;;;;;;;10.95;2.50;;;6.30;99.90;;;;;;5086626;28;20123;-67
2024/03/25 03:19:26;;;;;;;7.18;1.90;;;6.30;99.90;;;;;;5083606;28;20081;-67
2024/03/25 03:21:52;;;;;;;6.22;2.35;;;6.30;99.90;;;;;;5088220;28;20035;-67
2024/03/25 03:24:18;;;;;;;9.18;2.40;;;6.30;99.90;;;;;;5088163;28;20033;-67
2024/03/25 03:26:44;;;;;;;10.93;2.28;;;6.30;99.90;;;;;;5070961;28;20107;-67
2024/03/25 03:29:10;;;;;;;10.32;2.28;;;6.30;99.90;;;;;;5088942;28;20190;-67
2024/03/25 03:31:36;;;;;;;8.57;2.10;;;6.20;99.90;;;;;;5070622;28;20061;-67
2024/03/25 03:34:01;;;;;;;8.10;2.40;;;6.20;99.90;;;;;;5082466;28;20547;-67
2024/03/25 03:36:27;;;;;;;11.32;2.13;;;6.30;99.90;;;;;;5083307;28;20521;-67
2024/03/25 03:38:52;;;;;;;7.30;1.95;;;6.20;99.90;;;;;;5088403;28;20043;-67
2024/03/25 03:41:18;;;;;;;11.10;2.33;;;6.20;99.90;;;;;;5081916;28;20032;-67
2024/03/25 03:43:44;;;;;;;7.00;2.42;;;6.30;99.90;;;;;;5080898;28;20193;-67
2024/03/25 03:46:10;;;;;;;8.13;2.25;;;6.30;99.90;;;;;;5063784;28;20035;-67
2024/03/25 03:48:37;;;;;;;12.05;2.17;;;6.20;99.90;;;;;;5088142;28;20020;-67
2024/03/25 03:51:02;;;;;;;9.55;2.42;;;6.20;99.90;;;;;;5069537;28;20024;-67
2024/03/25 03:53:28;;;;;;;11.55;2.33;;;6.30;99.90;;;;;;5072247;28;20435;-67
2024/03/25 03:55:58;;;;;;;11.27;2.20;;;6.30;99.90;;;;;;5074749;28;20028;-67
2024/03/25 03:58:24;;;;;;;9.00;2.35;;;6.30;99.90;;;;;;5081446;28;20028;-67
2024/03/25 04:00:51;;;;;;;6.72;2.15;;;6.30;99.90;;;;;;5085798;28;20141;-67
2024/03/25 04:03:17;;;;;;;13.65;2.25;;;6.20;99.90;;;;;;5087529;28;20028;-67
2024/03/25 04:05:42;;;;;;;6.15;1.90;;;6.20;99.90;;;;;;5085651;28;20119;-67
2024/03/25 04:08:08;;;;;;;4.30;1.98;;;6.30;99.90;;;;;;5087472;28;20135;-67
2024/03/25 04:10:34;;;;;;;7.38;2.17;;;6.20;99.90;;;;;;5073289;28;20424;-67
2024/03/25 04:13:00;;;;;;;14.32;2.88;;;6.20;99.90;;;;;;5085523;28;20260;-67
2024/03/25 04:15:26;;;;;;;7.35;2.13;;;6.20;99.90;;;;;;5061047;28;20103;-67
2024/03/25 04:17:52;;;;;;;5.32;1.73;;;6.20;99.90;;;;;;5086604;28;20451;-67
2024/03/25 04:20:18;;;;;;;11.40;2.28;;;6.20;99.90;;;;;;5080073;28;20036;-67
2024/03/25 04:22:47;;;;;;;11.60;2.50;;;6.20;99.90;;;;;;5086988;28;20058;-66
2024/03/25 04:25:16;;;;;;;6.80;1.83;;;6.10;99.90;;;;;;5086510;28;20416;-67
2024/03/25 04:27:42;;;;;;;6.68;1.90;;;6.10;99.90;;;;;;5085665;28;20056;-67
2024/03/25 04:30:09;;;;;;;8.57;2.15;;;6.10;99.90;;;;;;5070507;28;20032;-67
2024/03/25 04:32:35;;;;;;;3.55;1.30;;;6.10;99.90;;;;;;5086532;28;20046;-67
2024/03/25 04:35:01;;;;;;;7.95;1.85;;;6.10;99.90;;;;;;5080985;28;20580;-67
2024/03/25 04:37:30;;;;;;;8.77;1.63;;;6.10;99.90;;;;;;5086862;28;20110;-67
2024/03/25 04:39:56;;;;;;;9.63;1.92;;;6.10;99.90;;;;;;5081528;28;20028;-67
2024/03/25 04:42:23;;;;;;;9.32;1.95;;;6.10;99.90;;;;;;5069330;28;20039;-67
2024/03/25 04:44:49;;;;;;;11.20;2.03;;;6.10;99.90;;;;;;5087125;28;20040;-67
2024/03/25 04:47:15;;;;;;;7.05;1.90;;;6.10;99.90;;;;;;5072409;28;20040;-67
2024/03/25 04:49:41;;;;;;;8.20;1.80;;;6.10;99.90;;;;;;5086244;28;20549;-67
2024/03/25 04:52:07;;;;;;;21.75;2.78;;;6.10;99.90;;;;;;5087617;28;20036;-67
2024/03/25 04:54:32;;;;;;;8.63;1.95;;;6.10;99.90;;;;;;5082082;28;20071;-67
2024/03/25 04:56:58;;;;;;;9.00;2.13;;;6.10;99.90;;;;;;5081920;28;20034;-67
2024/03/25 04:59:24;;;;;;;13.98;2.13;;;6.20;99.90;;;;;;5081481;28;20523;-67
2024/03/25 05:01:49;;;;;;;16.42;2.45;;;6.20;99.90;;;;;;5080619;28;20073;-67
2024/03/25 05:04:15;;;;;;;11.57;2.30;;;6.20;99.90;;;;;;5082438;28;20028;-67
2024/03/25 05:06:41;;;;;;;11.30;2.60;;;6.20;99.90;;;;;;5090447;28;20024;-67
2024/03/25 05:09:06;;;;;;;26.50;3.90;;;6.20;99.90;;;;;;5089590;28;20028;-67
2024/03/25 05:11:33;;;;;;;18.70;2.88;;;6.20;99.90;;;;;;5090658;28;20085;-64
2024/03/25 05:13:59;;;;;;;9.65;2.28;;;6.20;99.90;;;;;;5090503;28;20036;-64
2024/03/25 05:16:24;;;;;;;18.95;2.83;;;6.20;99.90;;;;;;5083659;28;20228;-64
2024/03/25 05:18:50;;;;;;;15.30;3.08;;;6.30;99.90;;;;;;5091622;28;20062;-65
2024/03/25 05:21:15;;;;;;;14.82;3.30;;;6.30;99.90;;;;;;5070541;28;20066;-66
2024/03/25 05:23:42;;;;;;;15.07;2.67;;;6.30;99.90;;;;;;5089717;28;20036;-64
2024/03/25 05:26:08;;;;;;;10.30;3.40;;;6.30;99.90;;;;;;5078936;28;20036;-64
2024/03/25 05:28:33;;;;;;;8.65;2.58;;;6.30;99.90;;;;;;5091332;28;20026;-64
2024/03/25 05:31:06;;;;;;;13.32;3.13;;;6.30;99.90;;;;;;5090296;28;20040;-65
2024/03/25 05:33:32;;;;;;;16.38;2.85;;;6.30;99.90;;;;;;5086160;28;20658;-64
2024/03/25 05:35:59;;;;;;;25.38;3.65;;;6.30;99.90;;;;;;5095779;28;20107;-64
2024/03/25 05:38:24;;;;;;;12.00;3.00;;;6.30;99.90;;;;;;5088543;28;20052;-64
2024/03/25 05:40:50;;;;;;;14.52;2.80;;;6.40;99.90;;;;;;5090243;28;20058;-65
2024/03/25 05:43:15;;;;;;;10.90;2.35;;;6.40;99.90;;;;;;5079269;28;20071;-65
2024/03/25 05:45:49;;;;;;;15.77;2.80;;;6.40;99.90;;;;;;5090191;28;20499;-65
2024/03/25 05:48:15;;;;;;;15.07;2.50;;;6.40;99.90;;;;;;5087071;28;20032;-64
2024/03/25 05:50:40;;;;;;;19.30;3.08;;;6.40;99.90;;;;;;5075177;28;20020;-64
2024/03/25 05:53:06;;;;;;;20.02;2.90;;;6.40;99.90;;;;;;5089153;28;20078;-65
2024/03/25 05:55:31;;;;;;;23.02;3.05;;;6.40;99.90;;;;;;5073953;28;20055;-65
2024/03/25 05:57:57;;;;;;;17.92;2.38;;;6.40;99.90;;;;;;5089946;28;20111;-65
2024/03/25 06:00:24;;;;;;;16.10;2.22;;;6.50;99.90;;;;;;5084242;28;20098;-64
2024/03/25 06:02:50;;;;;;;18.85;3.10;;;6.50;99.90;;;;;;5089544;28;20516;-65
2024/03/25 06:05:15;;;;;;;23.95;2.88;;;6.50;99.90;;;;;;5088189;28;20139;-64
2024/03/25 06:07:41;;;;;;;16.45;2.47;;;6.50;99.90;;;;;;5088582;28;20016;-65
2024/03/25 06:10:07;;;;;;;21.27;3.20;;;6.40;99.90;;;;;;5084311;28;20054;-64
2024/03/25 06:12:32;;;;;;;22.70;3.10;;;6.40;99.90;;;;;;5090378;28;20024;-65
2024/03/25 06:14:58;;;;;;;16.88;2.97;;;6.50;99.90;;;;;;5090689;28;20509;-64
2024/03/25 06:17:23;;;;;;;14.07;2.67;;;6.50;99.90;;;;;;5091246;28;20070;-65
2024/03/25 06:19:50;;;;;;;29.33;3.08;;;6.50;99.90;;;;;;5084971;28;20024;-65
2024/03/25 06:22:15;;;;;;;20.90;3.55;;;6.50;99.90;;;;;;5089168;28;20199;-65
2024/03/25 06:24:42;;;;;;;18.63;3.75;;;6.50;99.90;;;;;;5070378;28;20493;-64
2024/03/25 06:27:07;;;;;;;18.05;2.95;;;6.50;99.90;;;;;;5089671;28;20037;-65
2024/03/25 06:29:35;;;;;;;13.23;3.05;;;6.50;99.90;;;;;;5089564;28;20013;-65
2024/03/25 06:34:45;;;;;;;9.88;2.50;;;6.60;99.90;;;;;;5088734;28;20095;-64
2024/03/25 06:37:11;;;;;;;21.17;2.85;;;6.60;99.90;;;;;;5091582;28;20502;-64
2024/03/25 06:39:36;;;;;;;24.65;3.00;;;6.70;99.90;;;;;;5089292;28;20024;-64
2024/03/25 06:42:02;;;;;;;19.08;3.10;;;6.70;99.90;;;;;;5070917;28;20036;-65
2024/03/25 06:44:28;;;;;;;15.25;2.50;;;6.70;99.90;;;;;;5082382;28;20028;-65
2024/03/25 06:46:54;;;;;;;11.77;2.17;;;6.70;99.90;;;;;;5082821;28;20024;-64
2024/03/25 06:49:20;;;;;;;15.18;3.22;;;6.70;99.90;;;;;;5084813;28;20024;-65
2024/03/25 06:51:45;;;;;;;10.88;2.45;;;6.70;99.90;;;;;;5082795;28;20023;-65
2024/03/25 06:54:12;;;;;;;19.08;3.30;;;6.80;99.90;;;;;;5088616;28;20032;-65
2024/03/25 06:56:37;;;;;;;11.55;2.80;;;6.80;99.90;;;;;;5079508;28;20154;-65
2024/03/25 06:59:03;;;;;;;21.02;3.00;;;6.80;99.90;;;;;;5082901;28;20099;-65
2024/03/25 07:01:28;;;;;;;13.85;3.15;;;6.90;99.90;;;;;;5088973;28;20170;-65
2024/03/25 07:03:54;;;;;;;15.48;2.75;;;6.90;99.90;;;;;;5088364;28;20032;-65
2024/03/25 07:06:19;;;;;;;16.30;2.95;;;7.00;99.90;;;;;;5088395;28;20125;-65
2024/03/25 07:08:47;;;;;;;15.00;2.63;;;7.00;99.90;;;;;;5087833;28;20023;-65
2024/03/25 07:11:13;;;;;;;12.85;2.63;;;7.00;99.90;;;;;;5086996;28;20028;-65
2024/03/25 07:13:39;;;;;;;16.52;3.13;;;7.10;99.90;;;;;;5088746;28;20024;-65
2024/03/25 07:16:04;;;;;;;13.30;2.78;;;7.10;99.90;;;;;;5084440;28;20028;-65
2024/03/25 07:18:30;;;;;;;21.25;2.70;;;7.10;99.90;;;;;;5081546;28;20027;-64
2024/03/25 07:20:56;;;;;;;12.82;2.28;;;7.00;99.90;;;;;;5075470;28;20397;-65
2024/03/25 07:23:21;;;;;;;22.30;3.72;;;7.00;99.90;;;;;;5082100;28;20107;-65
2024/03/25 07:25:47;;;;;;;25.17;4.22;;;7.00;99.90;;;;;;5087424;28;20036;-65
2024/03/25 07:28:12;;;;;;;20.58;3.25;;;7.10;99.90;;;;;;5069833;28;20103;-65
2024/03/25 07:30:38;;;;;;;13.07;2.72;;;7.20;99.90;;;;;;5078022;28;20032;-65
2024/03/25 07:33:04;;;;;;;15.88;3.08;;;7.10;99.90;;;;;;5082349;28;20028;-65
2024/03/25 07:35:30;;;;;;;18.17;2.80;;;7.10;99.90;;;;;;5084101;28;20089;-65
2024/03/25 07:37:56;;;;;;;17.67;2.78;;;7.20;99.90;;;;;;5086919;28;20473;-65
2024/03/25 07:40:22;;;;;;;19.23;2.90;;;7.30;99.90;;;;;;5088366;28;20031;-65
2024/03/25 07:42:48;;;;;;;25.98;3.88;;;7.30;99.90;;;;;;5087695;28;20025;-65
2024/03/25 07:45:15;;;;;;;17.35;3.42;;;7.30;99.90;;;;;;5079660;28;20554;-65
2024/03/25 07:47:40;;;;;;;14.57;3.20;;;7.40;99.90;;;;;;5087876;28;20542;-65
2024/03/25 07:50:07;;;;;;;21.63;3.30;;;7.50;99.90;;;;;;5083737;28;20792;-65
2024/03/25 07:52:32;;;;;;;21.67;3.97;;;7.50;99.90;;;;;;5083430;28;20175;-65
2024/03/25 07:54:58;;;;;;;16.98;3.20;;;7.50;99.90;;;;;;5086912;28;20540;-65
2024/03/25 07:57:24;;;;;;;18.48;3.03;;;7.50;99.90;;;;;;5085699;28;20123;-65
2024/03/25 07:59:49;;;;;;;19.60;2.97;;;7.50;99.90;;;;;;5081094;28;20028;-65
2024/03/25 08:02:15;;;;;;;16.42;3.58;;;7.60;99.90;;;;;;5064118;28;20389;-65
2024/03/25 08:04:41;;;;;;;15.07;2.88;;;7.60;99.90;;;;;;5072524;28;20024;-65
2024/03/25 08:07:07;;;;;;;17.33;3.30;;;7.50;99.90;;;;;;5082431;28;20027;-65
2024/03/25 08:09:33;;;;;;;19.05;2.92;;;7.50;99.90;;;;;;5087678;28;20023;-65
2024/03/25 08:11:59;;;;;;;17.45;2.83;;;7.60;99.90;;;;;;5087120;28;20040;-65
2024/03/25 08:14:24;;;;;;;22.70;2.95;;;7.60;99.90;;;;;;5070488;28;20485;-65
2024/03/25 08:16:50;;;;;;;27.13;3.28;;;7.70;99.90;;;;;;5083573;28;20111;-65
2024/03/25 08:19:16;;;;;;;19.20;3.45;;;7.80;99.90;;;;;;5082289;28;20034;-65
2024/03/25 08:21:42;;;;;;;15.20;2.95;;;7.80;99.90;;;;;;5065240;28;20032;-65
2024/03/25 08:24:07;;;;;;;18.20;2.97;;;7.80;99.90;;;;;;5084653;28;20033;-65
2024/03/25 08:26:33;;;;;;;13.43;2.63;;;7.80;99.90;;;;;;5074510;28;20028;-65
2024/03/25 08:28:58;;;;;;;20.38;2.80;;;7.80;99.90;;;;;;5077386;28;20501;-65
2024/03/25 08:31:24;;;;;;;23.92;2.65;;;7.90;99.90;;;;;;5087289;28;20385;-65
2024/03/25 08:33:50;;;;;;;12.55;3.13;;;7.90;99.90;;;;;;5088265;28;20031;-65
2024/03/25 08:36:16;;;;;;;12.20;2.20;;;8.00;99.90;;;;;;5085376;28;20501;-65
2024/03/25 08:38:41;;;;;;;12.77;2.97;;;8.00;99.90;;;;;;5079809;28;20029;-65
2024/03/25 08:41:07;;;;;;;13.38;2.53;;;8.00;99.90;;;;;;5085354;28;20156;-65
2024/03/25 08:43:33;;;;;;;18.70;3.45;;;8.00;99.90;;;;;;5083264;28;20055;-65
2024/03/25 08:45:58;;;;;;;14.57;3.17;;;8.00;99.90;;;;;;5076566;28;20044;-65
2024/03/25 08:48:24;;;;;;;19.67;2.63;;;8.10;99.90;;;;;;5078723;28;20409;-64
2024/03/25 08:50:49;;;;;;;13.05;3.00;;;8.20;99.90;;;;;;5076996;28;20021;-65
2024/03/25 08:53:15;;;;;;;24.42;3.22;;;8.20;99.90;;;;;;5080334;28;20032;-65
2024/03/25 08:55:45;;;;;;;26.20;3.10;;;8.30;99.90;;;;;;5085693;28;20028;-65
2024/03/25 08:58:12;;;;;;;20.55;3.45;;;8.30;99.90;;;;;;5085205;28;20035;-65
2024/03/25 09:00:38;;;;;;;23.77;2.70;;;8.40;99.90;;;;;;5086777;28;20032;-65
2024/03/25 09:03:04;;;;;;;16.75;3.38;;;8.50;99.90;;;;;;5086361;28;20040;-65
2024/03/25 09:05:30;;;;;;;19.58;3.10;;;8.50;99.90;;;;;;5086852;28;20032;-64
2024/03/25 09:07:55;;;;;;;16.25;2.55;;;8.60;99.90;;;;;;5086602;28;20028;-65
2024/03/25 09:13:05;;;;;;;13.73;2.53;;;8.70;99.90;;;;;;5079065;28;20051;-65
2024/03/25 09:15:31;;;;;;;18.05;3.08;;;8.80;99.90;;;;;;5076559;28;20029;-65
2024/03/25 09:17:57;;;;;;;10.55;2.90;;;8.80;99.90;;;;;;5063185;28;20029;-65
2024/03/25 09:20:23;;;;;;;21.77;3.15;;;8.80;99.90;;;;;;5086703;28;20035;-65
2024/03/25 09:22:49;;;;;;;12.30;3.10;;;8.80;99.90;;;;;;5086154;28;20027;-65
2024/03/25 09:25:18;;;;;;;14.85;2.78;;;8.80;99.90;;;;;;5084805;28;20154;-65
2024/03/25 09:27:50;;;;;;;16.20;2.75;;;8.80;99.90;;;;;;5074785;28;20033;-65
2024/03/25 09:30:20;;;;;;;12.30;2.17;;;8.80;99.90;;;;;;5077309;28;20028;-65
2024/03/25 09:32:45;;;;;;;13.43;2.28;;;8.80;99.90;;;;;;5083950;28;20024;-65
2024/03/25 09:35:12;;;;;;;16.67;2.35;;;8.90;99.90;;;;;;5074903;28;20028;-65
2024/03/25 09:37:38;;;;;;;11.60;2.17;;;8.90;99.90;;;;;;5076791;28;20020;-65
2024/03/25 09:40:04;;;;;;;9.63;1.80;;;8.90;99.90;;;;;;5080733;28;20028;-65
2024/03/25 09:42:41;;;;;;;10.20;2.25;;;9.00;99.90;;;;;;5071790;28;20111;-65
2024/03/25 09:45:08;;;;;;;10.63;2.08;;;8.90;99.90;;;;;;5086002;28;20040;-65
2024/03/25 09:47:34;;;;;;;15.00;2.28;;;8.90;99.90;;;;;;5086664;28;20040;-65
2024/03/25 09:50:04;;;;;;;10.25;2.13;;;8.90;99.90;;;;;;5086658;28;20036;-65
2024/03/25 09:52:30;;;;;;;12.55;2.00;;;8.90;99.50;;;;;;5090525;28;20042;-65
2024/03/25 09:54:55;;;;;;;8.45;1.77;;;8.90;99.20;;;;;;5088735;28;20477;-65
2024/03/25 09:57:22;;;;;;;10.38;1.50;;;8.90;98.40;;;;;;5089674;28;20039;-65
2024/03/25 09:59:48;;;;;;;9.93;1.27;;;9.00;98.10;;;;;;5084875;28;20048;-65
2024/03/25 10:02:15;;;;;;;6.10;1.25;;;9.00;97.30;;;;;;5078381;28;20078;-65
2024/03/25 10:04:46;;;;;;;7.43;1.23;;;9.00;96.80;;;;;;5084449;28;20020;-65
2024/03/25 10:07:22;;;;;;;4.03;0.75;;;9.00;96.90;;;;;;5090908;28;20023;-65
2024/03/25 10:09:47;;;;;;;5.75;1.25;;;9.10;97.10;;;;;;5075751;28;20511;-65
2024/03/25 10:12:13;;;;;;;15.05;2.63;;;9.10;97.00;;;;;;5089931;28;20032;-65
2024/03/25 10:14:40;;;;;;;13.82;2.13;;;9.10;97.70;;;;;;5089532;28;20020;-65
2024/03/25 10:17:06;;;;;;;12.90;1.93;;;9.10;98.30;;;;;;5087012;28;20051;-65
2024/03/25 10:19:34;;;;;;;10.43;1.38;;;9.10;98.60;;;;;;5084186;28;20032;-65
2024/03/25 10:22:07;;;;;;;9.82;1.90;;;9.20;99.20;;;;;;5083964;28;20751;-65
2024/03/25 10:24:43;;;;;;;5.80;1.08;;;9.30;98.40;;;;;;5067575;28;20112;-65
2024/03/25 10:27:20;;;;;;;4.13;0.88;;;9.50;97.00;;;;;;5088662;28;20032;-65
2024/03/25 10:29:46;;;;;;;7.13;2.40;;;9.50;97.00;;;;;;5089234;28;20654;-65
2024/03/25 10:32:13;;;;;;;5.20;0.98;;;9.70;96.50;;;;;;5086394;28;20025;-65
2024/03/25 10:34:40;;;;;;;4.25;0.75;;;9.50;97.10;;;;;;5060694;28;20024;-65
2024/03/25 10:37:09;;;;;;;5.38;1.50;;;9.50;96.60;;;;;;5089075;28;20053;-65
2024/03/25 10:39:40;;;;;;;12.35;1.80;;;9.50;96.60;;;;;;5089172;28;20028;-65
2024/03/25 10:42:07;;;;;;;10.55;1.40;;;9.40;97.40;;;;;;5087555;28;20119;-65
2024/03/25 10:44:33;;;;;;;9.43;1.17;;;9.40;96.90;;;;;;5074318;28;20024;-65
2024/03/25 10:47:01;;;;;;;14.00;2.05;;;9.40;97.30;;;;;;5077979;28;20802;-65
2024/03/25 10:49:47;;;;;;;;;;;9.50;97.40;;;;;;5088867;28;20017;-65
2024/03/25 10:52:14;;;;;;;17.17;1.70;;;9.60;98.00;;;;;;5056390;28;19946;-65
2024/03/25 10:54:40;;;;;;;7.90;1.35;;;10.00;97.60;;;;;;5082890;28;20040;-65
2024/03/25 10:57:07;;;;;;;7.13;1.40;;;10.30;96.90;;;;;;5082228;28;20048;-65
2024/03/25 10:59:37;;;;;;;9.30;1.90;;;10.60;95.80;;;;;;5079752;28;20028;-65
2024/03/25 11:02:03;;;;;;;11.93;1.73;;;10.70;95.10;;;;;;5081187;28;20035;-65
2024/03/25 11:04:31;;;;;;;5.78;1.08;;;10.70;94.70;;;;;;5084826;28;20029;-65
2024/03/25 11:07:10;;;;;;;8.90;1.30;;;10.80;95.30;;;;;;5073833;28;20579;-65
2024/03/25 11:09:36;;;;;;;5.13;1.05;;;10.70;93.90;;;;;;5073850;28;20032;-65
2024/03/25 11:12:02;;;;;;;10.88;1.73;;;10.70;94.40;;;;;;5088015;28;20568;-65
2024/03/25 11:14:28;;;;;;;12.93;1.83;;;10.70;95.20;;;;;;5073986;28;20024;-65
2024/03/25 11:16:54;;;;;;;8.57;2.03;;;10.70;95.00;;;;;;5090210;28;20106;-65
2024/03/25 11:19:25;;;;;;;9.85;1.50;;;10.80;94.90;;;;;;5087284;28;20029;-66
2024/03/25 11:21:50;;;;;;;7.75;1.60;;;11.50;96.20;;;;;;5083512;28;20055;-66
2024/03/25 11:24:29;;;;;;;12.98;2.10;;;12.30;97.10;;;;;;5084791;28;20082;-66
2024/03/25 11:26:56;;;;;;;7.18;1.58;;;13.00;94.20;;;;;;5063811;28;20501;-66
2024/03/25 11:29:22;;;;;;;13.93;2.22;;;12.90;94.30;;;;;;5084649;28;20031;-65
2024/03/25 11:31:52;;;;;;;10.00;1.77;;;12.90;94.00;;;;;;5088017;28;20020;-65
2024/03/25 11:34:18;;;;;;;9.80;1.77;;;13.10;93.20;;;;;;5065130;28;20041;-65
2024/03/25 11:36:43;;;;;;;12.20;1.85;;;13.10;94.10;;;;;;5082262;28;20028;-66
2024/03/25 11:39:09;;;;;;;11.20;1.70;;;13.20;93.60;;;;;;5085932;28;20028;-65
2024/03/25 11:41:42;;;;;;;7.85;2.35;;;13.00;93.60;;;;;;5061587;28;20044;-66
2024/03/25 11:44:08;;;;;;;8.77;1.50;;;12.90;92.60;;;;;;5081770;28;20043;-66
2024/03/25 11:46:36;;;;;;;9.18;2.13;;;12.80;92.50;;;;;;5070046;28;20119;-65
2024/03/25 11:49:12;;;;;;;14.77;1.92;;;12.50;93.00;;;;;;5071913;28;20116;-65
2024/03/25 11:51:41;;;;;;;12.38;1.67;;;12.20;92.90;;;;;;5083647;28;20024;-65
2024/03/25 11:54:10;;;;;;;6.25;1.45;;;12.00;93.30;;;;;;5085433;28;20390;-65
2024/03/25 11:56:37;;;;;;;7.40;1.70;;;12.10;93.70;;;;;;5070980;28;20073;-65
2024/03/25 11:59:03;;;;;;;8.10;1.98;;;11.90;94.10;;;;;;5072358;28;20497;-65
2024/03/25 12:01:30;;;;;;;4.30;1.27;;;11.90;93.80;;;;;;5070289;28;20032;-65
2024/03/25 12:03:56;;;;;;;8.82;1.60;;;11.70;93.50;;;;;;5082259;28;20024;-65
2024/03/25 12:06:22;;;;;;;10.15;1.45;;;11.50;92.90;;;;;;5086996;28;20578;-65
2024/03/25 12:11:32;;;;;;;8.57;1.60;;;11.50;93.80;;;;;;5082622;28;20054;-65
2024/03/25 12:13:58;;;;;;;8.70;1.35;;;11.70;93.20;;;;;;5087066;28;20374;-65
2024/03/25 12:16:25;;;;;;;7.88;1.40;;;11.70;91.40;;;;;;5086699;28;20023;-65
2024/03/25 12:18:52;;;;;;;10.85;1.73;;;11.70;92.30;;;;;;5082056;28;20032;-65
2024/03/25 12:21:19;;;;;;;10.23;1.58;;;11.80;92.60;;;;;;5087953;28;20032;-65
2024/03/25 12:23:44;;;;;;;9.35;1.38;;;11.70;91.40;;;;;;5080053;28;20032;-65
2024/03/25 12:26:10;;;;;;;6.60;1.23;;;12.00;90.90;;;;;;5086199;28;20040;-65
2024/03/25 12:28:37;;;;;;;9.80;1.70;;;11.90;91.00;;;;;;5087423;28;20499;-65
2024/03/25 12:31:07;;;;;;;6.35;1.33;;;11.80;91.20;;;;;;5087370;28;20035;-65
2024/03/25 12:33:44;;;;;;;4.72;1.17;;;11.70;91.50;;;;;;5087147;28;20021;-66
2024/03/25 12:36:12;;;;;;;5.70;1.17;;;11.70;91.00;;;;;;5086930;28;20036;-65
2024/03/25 12:38:38;;;;;;;4.50;0.85;;;11.50;90.10;;;;;;5086815;28;20024;-65
2024/03/25 12:41:11;;;;;;;4.28;0.68;;;11.40;90.60;;;;;;5084136;28;20507;-65
2024/03/25 12:43:42;;;;;;;3.42;1.20;;;11.30;89.80;;;;;;5087107;28;20095;-65
2024/03/25 12:46:11;;;;;;;11.73;1.52;;;11.30;90.90;;;;;;5070204;28;20016;-65
2024/03/25 12:48:42;;;;;;;5.35;1.35;;;11.30;91.30;;;;;;5083473;28;20198;-65
2024/03/25 12:51:15;;;;;;;10.00;1.40;;;11.50;91.60;;;;;;5086630;28;20059;-65
2024/03/25 12:53:41;;;;;;;8.48;1.27;;;11.70;91.00;;;;;;5087142;28;20028;-65
2024/03/25 12:56:07;;;;;;;6.20;1.15;;;11.70;90.80;;;;;;5087867;28;20645;-65